createdAt,value
2019-03-24T00:02:25.981Z,102155.37
2019-03-24T00:04:59.516Z,102156.44
2019-03-24T00:07:32.980Z,102159.67
2019-03-24T00:10:07.996Z,102159.11
2019-03-24T00:12:41.445Z,102157.80
2019-03-24T00:15:25.452Z,102167.12
2019-03-24T00:17:51.038Z,102167.12
2019-03-24T00:20:24.471Z,102165.06
2019-03-24T00:22:57.894Z,102166.63
2019-03-24T00:25:31.433Z,102156.41
2019-03-24T00:28:05.955Z,102159.27
2019-03-24T00:30:39.539Z,102163.00
2019-03-24T00:33:13.243Z,102156.50
2019-03-24T00:35:46.932Z,102157.86
2019-03-24T00:38:20.353Z,102149.97
2019-03-24T00:40:53.976Z,102147.12
2019-03-24T00:43:27.407Z,102149.66
2019-03-24T00:46:01.236Z,102145.78
2019-03-24T00:48:34.744Z,102145.28
2019-03-24T00:51:08.360Z,102142.61
2019-03-24T00:53:42.047Z,102144.99
2019-03-24T00:56:15.639Z,102141.16
2019-03-24T00:58:49.236Z,102144.94
2019-03-24T01:01:22.608Z,102136.02
2019-03-24T01:03:56.100Z,102139.73
2019-03-24T01:06:29.710Z,102135.39
2019-03-24T01:09:03.182Z,102134.84
2019-03-24T01:11:36.821Z,102134.84
2019-03-24T01:14:10.296Z,102134.41
2019-03-24T01:16:43.957Z,102127.11
2019-03-24T01:19:17.598Z,102133.38
2019-03-24T01:21:51.095Z,102129.06
2019-03-24T01:24:24.782Z,102127.77
2019-03-24T01:26:58.300Z,102123.06
2019-03-24T01:29:31.924Z,102131.34
2019-03-24T01:32:05.431Z,102133.60
2019-03-24T01:34:39.035Z,102129.94
2019-03-24T01:37:12.561Z,102134.06
2019-03-24T01:39:46.120Z,102131.83
2019-03-24T01:42:19.706Z,102132.50
2019-03-24T01:44:53.177Z,102145.91
2019-03-24T01:47:26.653Z,102131.89
2019-03-24T01:50:00.318Z,102125.85
2019-03-24T01:52:33.780Z,102132.86
2019-03-24T01:55:08.138Z,102132.77
2019-03-24T01:57:41.684Z,102121.70
2019-03-24T02:00:15.349Z,102125.47
2019-03-24T02:02:48.789Z,102122.42
2019-03-24T02:05:22.243Z,102112.66
2019-03-24T02:07:55.652Z,102114.30
2019-03-24T02:10:29.275Z,102113.36
2019-03-24T02:13:02.874Z,102110.00
2019-03-24T02:15:36.514Z,102112.83
2019-03-24T02:18:10.034Z,102115.67
2019-03-24T02:20:43.567Z,102114.75
2019-03-24T02:23:17.070Z,102127.31
2019-03-24T02:25:50.524Z,102130.58
2019-03-24T02:28:24.022Z,102135.95
2019-03-24T02:30:57.512Z,102128.58
2019-03-24T02:33:30.994Z,102124.16
2019-03-24T02:36:04.657Z,102120.16
2019-03-24T02:38:38.155Z,102118.90
2019-03-24T02:41:11.730Z,102107.08
2019-03-24T02:43:45.287Z,102107.05
2019-03-24T02:46:24.467Z,102106.98
2019-03-24T02:48:54.239Z,102096.30
2019-03-24T02:51:27.746Z,102098.00
2019-03-24T02:54:01.230Z,102099.77
2019-03-24T02:56:34.759Z,102099.70
2019-03-24T02:59:08.159Z,102100.53
2019-03-24T03:01:41.689Z,102099.98
2019-03-24T03:04:15.217Z,102097.39
2019-03-24T03:06:48.848Z,102092.09
2019-03-24T03:09:22.280Z,102089.18
2019-03-24T03:11:55.856Z,102095.19
2019-03-24T03:14:29.332Z,102096.52
2019-03-24T03:17:02.895Z,102094.40
2019-03-24T03:19:36.307Z,102093.07
2019-03-24T03:22:09.843Z,102094.33
2019-03-24T03:24:43.428Z,102095.98
2019-03-24T03:27:16.897Z,102099.77
2019-03-24T03:29:50.610Z,102101.48
2019-03-24T03:32:24.121Z,102094.78
2019-03-24T03:34:57.820Z,102101.03
2019-03-24T03:37:31.276Z,102095.98
2019-03-24T03:40:06.731Z,102098.13
2019-03-24T03:42:40.257Z,102098.98
2019-03-24T03:45:16.843Z,102096.95
2019-03-24T03:47:50.286Z,102092.81
2019-03-24T03:50:23.702Z,102094.53
2019-03-24T03:52:57.289Z,102082.70
2019-03-24T03:55:30.715Z,102080.42
2019-03-24T03:58:04.211Z,102081.34
2019-03-24T04:00:37.791Z,102069.23
2019-03-24T04:03:11.304Z,102063.45
2019-03-24T04:05:44.729Z,102061.45
2019-03-24T04:08:18.118Z,102059.84
2019-03-24T04:10:51.528Z,102057.75
2019-03-24T04:13:24.987Z,102060.37
2019-03-24T04:15:58.390Z,102060.02
2019-03-24T04:18:31.753Z,102057.20
2019-03-24T04:21:05.329Z,102051.81
2019-03-24T04:23:38.744Z,102048.05
2019-03-24T04:26:12.189Z,102050.67
2019-03-24T04:28:45.599Z,102052.08
2019-03-24T04:31:19.008Z,102053.05
2019-03-24T04:33:52.365Z,102056.09
2019-03-24T04:36:25.767Z,102051.38
2019-03-24T04:38:59.123Z,102052.64
2019-03-24T04:41:32.489Z,102053.91
2019-03-24T04:44:05.940Z,102058.23
2019-03-24T04:46:39.277Z,102057.97
2019-03-24T04:49:12.628Z,102057.47
2019-03-24T04:51:46.005Z,102055.03
2019-03-24T04:54:19.372Z,102051.25
2019-03-24T04:56:52.882Z,102049.14
2019-03-24T04:59:26.281Z,102047.02
2019-03-24T05:01:59.755Z,102046.28
2019-03-24T05:04:33.110Z,102041.69
2019-03-24T05:07:06.557Z,102040.95
2019-03-24T05:09:40.055Z,102042.73
2019-03-24T05:12:13.615Z,102046.23
2019-03-24T05:14:47.042Z,102044.17
2019-03-24T05:17:26.927Z,102039.19
2019-03-24T05:19:55.638Z,102032.91
2019-03-24T05:22:28.999Z,102024.88
2019-03-24T05:25:02.326Z,102018.60
2019-03-24T05:27:35.769Z,102019.38
2019-03-24T05:30:09.181Z,102015.14
2019-03-24T05:32:42.627Z,102018.60
2019-03-24T05:35:16.217Z,102026.67
2019-03-24T05:37:49.598Z,102025.88
2019-03-24T05:40:23.000Z,102022.53
2019-03-24T05:42:56.551Z,102020.50
2019-03-24T05:45:29.890Z,102020.66
2019-03-24T05:48:03.347Z,102031.34
2019-03-24T05:50:36.862Z,102034.80
2019-03-24T05:53:10.514Z,102021.77
2019-03-24T05:55:44.069Z,102019.27
2019-03-24T05:58:17.468Z,102021.94
2019-03-24T06:00:50.840Z,102030.95
2019-03-24T06:03:24.207Z,102034.11
2019-03-24T06:05:57.549Z,102019.05
2019-03-24T06:08:31.666Z,102017.52
2019-03-24T06:11:05.464Z,102017.69
2019-03-24T06:13:38.967Z,102021.17
2019-03-24T06:16:12.396Z,102020.47
2019-03-24T06:18:45.841Z,102017.64
2019-03-24T06:21:20.671Z,102020.68
2019-03-24T06:23:54.189Z,102022.87
2019-03-24T06:26:27.562Z,102024.68
2019-03-24T06:29:01.092Z,102025.27
2019-03-24T06:31:34.589Z,102027.95
2019-03-24T06:34:08.031Z,102034.03
2019-03-24T06:36:41.475Z,102039.31
2019-03-24T06:39:14.865Z,102034.05
2019-03-24T06:41:48.204Z,102022.39
2019-03-24T06:44:21.746Z,102021.39
2019-03-24T06:46:55.211Z,102016.08
2019-03-24T06:49:28.666Z,102020.08
2019-03-24T06:52:02.161Z,102024.87
2019-03-24T06:54:35.582Z,102021.66
2019-03-24T06:57:09.146Z,102018.51
2019-03-24T06:59:42.585Z,102014.45
2019-03-24T07:02:16.243Z,102014.94
2019-03-24T07:04:49.641Z,102005.73
2019-03-24T07:07:23.218Z,101999.96
2019-03-24T07:09:56.702Z,102011.53
2019-03-24T07:12:30.132Z,102006.98
2019-03-24T07:15:04.576Z,102001.85
2019-03-24T07:17:37.999Z,102009.06
2019-03-24T07:20:12.032Z,101995.78
2019-03-24T07:22:45.502Z,101999.70
2019-03-24T07:25:18.915Z,101985.73
2019-03-24T07:27:52.384Z,101987.99
2019-03-24T07:30:25.914Z,101986.55
2019-03-24T07:32:59.448Z,101988.41
2019-03-24T07:35:33.087Z,101988.55
2019-03-24T07:38:06.589Z,101985.98
2019-03-24T07:40:39.999Z,101983.31
2019-03-24T07:43:13.483Z,101982.73
2019-03-24T07:45:47.004Z,101987.53
2019-03-24T07:48:20.415Z,101979.56
2019-03-24T07:50:54.027Z,101972.05
2019-03-24T07:53:27.387Z,101964.47
2019-03-24T07:56:00.993Z,101970.17
2019-03-24T07:58:34.339Z,101964.86
2019-03-24T08:01:07.882Z,101961.98
2019-03-24T08:03:41.341Z,101969.44
2019-03-24T08:06:14.814Z,101976.11
2019-03-24T08:08:48.349Z,101967.44
2019-03-24T08:11:21.964Z,101964.68
2019-03-24T08:13:55.482Z,101960.30
2019-03-24T08:16:29.114Z,101956.20
2019-03-24T08:19:02.457Z,101960.23
2019-03-24T08:21:35.830Z,101964.09
2019-03-24T08:24:09.376Z,101975.44
2019-03-24T08:26:42.977Z,101970.72
2019-03-24T08:29:16.325Z,101966.98
2019-03-24T08:31:49.954Z,101972.69
2019-03-24T08:34:23.365Z,101963.16
2019-03-24T08:36:56.852Z,101960.23
2019-03-24T08:39:30.266Z,101954.03
2019-03-24T08:42:03.813Z,101951.25
2019-03-24T08:44:37.284Z,101945.97
2019-03-24T08:47:10.809Z,101942.64
2019-03-24T08:49:44.311Z,101936.92
2019-03-24T08:52:17.753Z,101934.48
2019-03-24T08:54:51.163Z,101935.20
2019-03-24T08:57:24.727Z,101928.16
2019-03-24T08:59:58.176Z,101928.55
2019-03-24T09:02:31.617Z,101921.37
2019-03-24T09:05:06.781Z,101918.91
2019-03-24T09:07:40.163Z,101920.97
2019-03-24T09:10:13.573Z,101919.55
2019-03-24T09:12:47.228Z,101917.12
2019-03-24T09:15:20.556Z,101902.83
2019-03-24T09:17:53.990Z,101897.33
2019-03-24T09:20:27.972Z,101893.63
2019-03-24T09:23:01.605Z,101887.66
2019-03-24T09:25:35.677Z,101878.05
2019-03-24T09:28:09.399Z,101869.28
2019-03-24T09:30:43.704Z,101865.83
2019-03-24T09:33:18.916Z,101855.75
2019-03-24T09:35:52.452Z,101853.55
2019-03-24T09:38:26.421Z,101859.23
2019-03-24T09:40:59.778Z,101843.53
2019-03-24T09:43:33.820Z,101843.57
2019-03-24T09:46:09.426Z,101837.68
2019-03-24T09:48:42.940Z,101829.59
2019-03-24T09:51:16.329Z,101827.66
2019-03-24T09:53:49.939Z,101819.34
2019-03-24T09:56:23.501Z,101811.52
2019-03-24T09:58:58.199Z,101808.39
2019-03-24T10:01:31.639Z,101805.99
2019-03-24T10:04:08.532Z,101809.05
2019-03-24T10:06:48.132Z,101806.71
2019-03-24T10:09:21.610Z,101814.40
2019-03-24T10:11:56.656Z,101801.73
2019-03-24T10:14:30.842Z,101801.62
2019-03-24T10:17:04.422Z,101798.95
2019-03-24T10:19:37.817Z,101797.95
2019-03-24T10:22:12.686Z,101794.59
2019-03-24T10:24:46.175Z,101798.52
2019-03-24T10:27:19.874Z,101795.64
2019-03-24T10:29:53.347Z,101785.58
2019-03-24T10:32:26.973Z,101787.88
2019-03-24T10:35:00.690Z,101782.70
2019-03-24T10:37:34.301Z,101785.43
2019-03-24T10:40:08.108Z,101772.86
2019-03-24T10:42:41.484Z,101768.39
2019-03-24T10:45:15.198Z,101769.37
2019-03-24T10:47:48.630Z,101765.81
2019-03-24T10:50:22.120Z,101767.67
2019-03-24T10:52:55.597Z,101770.09
2019-03-24T10:55:29.082Z,101762.00
2019-03-24T10:58:02.553Z,101758.56
2019-03-24T11:00:42.913Z,101757.38
2019-03-24T11:03:16.303Z,101746.42
2019-03-24T11:05:49.723Z,101744.21
2019-03-24T11:08:23.257Z,101742.29
2019-03-24T11:10:56.683Z,101739.70
2019-03-24T11:13:30.092Z,101733.97
2019-03-24T11:16:03.562Z,101732.32
2019-03-24T11:18:36.949Z,101723.28
2019-03-24T11:21:10.452Z,101722.23
2019-03-24T11:23:44.057Z,101714.25
2019-03-24T11:26:17.388Z,101707.94
2019-03-24T11:28:50.796Z,101696.93
2019-03-24T11:31:24.284Z,101692.99
2019-03-24T11:33:57.745Z,101698.87
2019-03-24T11:36:31.191Z,101696.72
2019-03-24T11:39:06.952Z,101694.06
2019-03-24T11:41:40.365Z,101695.02
2019-03-24T11:44:13.926Z,101690.39
2019-03-24T11:46:47.344Z,101686.69
2019-03-24T11:49:20.840Z,101677.58
2019-03-24T11:51:54.423Z,101678.50
2019-03-24T11:54:27.881Z,101677.22
2019-03-24T11:57:01.283Z,101666.38
2019-03-24T11:59:34.788Z,101668.42
2019-03-24T12:02:08.203Z,101669.00
2019-03-24T12:04:41.607Z,101665.38
2019-03-24T12:07:14.970Z,101669.97
2019-03-24T12:09:48.369Z,101671.95
2019-03-24T12:12:21.826Z,101669.89
2019-03-24T12:14:55.263Z,101663.51
2019-03-24T12:17:28.703Z,101662.81
2019-03-24T12:20:02.209Z,101647.52
2019-03-24T12:22:35.661Z,101637.48
2019-03-24T12:25:09.524Z,101638.20
2019-03-24T12:27:43.004Z,101637.64
2019-03-24T12:30:16.430Z,101633.81
2019-03-24T12:32:49.885Z,101632.69
2019-03-24T12:35:23.386Z,101627.77
2019-03-24T12:37:56.752Z,101628.16
2019-03-24T12:40:30.241Z,101626.53
2019-03-24T12:43:03.704Z,101617.20
2019-03-24T12:45:37.038Z,101623.41
2019-03-24T12:48:10.680Z,101620.74
2019-03-24T12:50:44.140Z,101613.99
2019-03-24T12:53:17.622Z,101600.53
2019-03-24T12:55:51.279Z,101592.75
2019-03-24T12:58:24.782Z,101595.85
2019-03-24T13:00:58.196Z,101592.51
2019-03-24T13:03:31.652Z,101592.20
2019-03-24T13:06:05.526Z,101591.52
2019-03-24T13:08:38.963Z,101583.90
2019-03-24T13:11:12.374Z,101583.02
2019-03-24T13:13:45.852Z,101576.72
2019-03-24T13:16:19.251Z,101569.47
2019-03-24T13:18:52.695Z,101571.88
2019-03-24T13:21:26.164Z,101568.06
2019-03-24T13:23:59.701Z,101567.41
2019-03-24T13:26:33.059Z,101560.44
2019-03-24T13:29:06.647Z,101551.94
2019-03-24T13:31:40.033Z,101556.67
2019-03-24T13:34:13.426Z,101554.64
2019-03-24T13:36:46.871Z,101547.36
2019-03-24T13:39:20.362Z,101544.92
2019-03-24T13:41:53.717Z,101550.36
2019-03-24T13:44:27.150Z,101542.97
2019-03-24T13:47:00.628Z,101536.45
2019-03-24T13:49:34.082Z,101531.48
2019-03-24T13:52:07.534Z,101522.00
2019-03-24T13:54:40.910Z,101521.18
2019-03-24T13:57:14.400Z,101524.58
2019-03-24T13:59:47.838Z,101522.75
2019-03-24T14:02:21.606Z,101516.30
2019-03-24T14:04:55.155Z,101508.00
2019-03-24T14:07:28.752Z,101503.98
2019-03-24T14:10:02.540Z,101507.86
2019-03-24T14:12:35.902Z,101505.11
2019-03-24T14:15:09.614Z,101504.08
2019-03-24T14:17:42.960Z,101498.17
2019-03-24T14:20:16.769Z,101493.17
2019-03-24T14:22:50.352Z,101487.05
2019-03-24T14:25:23.872Z,101486.66
2019-03-24T14:27:57.273Z,101487.75
2019-03-24T14:30:47.810Z,101485.42
2019-03-24T14:33:21.259Z,101477.23
2019-03-24T14:35:54.644Z,101468.30
2019-03-24T14:38:27.987Z,101468.28
2019-03-24T14:41:01.489Z,101473.70
2019-03-24T14:43:34.881Z,101471.71
2019-03-24T14:46:08.380Z,101465.97
2019-03-24T14:48:41.815Z,101469.25
2019-03-24T14:51:15.252Z,101457.28
2019-03-24T14:53:48.672Z,101456.05
2019-03-24T14:56:22.128Z,101456.78
2019-03-24T14:58:55.532Z,101466.04
2019-03-24T15:01:28.949Z,101457.61
2019-03-24T15:04:02.359Z,101461.08
2019-03-24T15:06:35.810Z,101450.36
2019-03-24T15:09:09.221Z,101458.00
2019-03-24T15:11:42.679Z,101449.59
2019-03-24T15:14:16.095Z,101439.75
2019-03-24T15:16:49.567Z,101443.05
2019-03-24T15:19:23.048Z,101446.30
2019-03-24T15:21:56.550Z,101436.84
2019-03-24T15:24:29.995Z,101435.63
2019-03-24T15:27:03.889Z,101437.03
2019-03-24T15:29:37.481Z,101433.00
2019-03-24T15:32:10.973Z,101435.83
2019-03-24T15:34:44.409Z,101436.44
2019-03-24T15:37:17.810Z,101429.44
2019-03-24T15:39:51.324Z,101424.81
2019-03-24T15:42:24.745Z,101416.42
2019-03-24T15:44:58.263Z,101420.00
2019-03-24T15:47:31.800Z,101413.35
2019-03-24T15:50:07.095Z,101418.92
2019-03-24T15:52:40.426Z,101410.89
2019-03-24T15:55:13.944Z,101413.26
2019-03-24T15:57:47.437Z,101408.34
2019-03-24T16:00:41.576Z,101404.27
2019-03-24T16:03:15.057Z,101402.97
2019-03-24T16:05:48.576Z,101402.31
2019-03-24T16:08:22.013Z,101397.34
2019-03-24T16:10:55.539Z,101397.83
2019-03-24T16:13:28.872Z,101393.59
2019-03-24T16:16:02.318Z,101397.56
2019-03-24T16:18:35.662Z,101391.23
2019-03-24T16:21:09.110Z,101390.86
2019-03-24T16:23:42.476Z,101393.92
2019-03-24T16:26:15.936Z,101391.84
2019-03-24T16:28:49.276Z,101393.63
2019-03-24T16:31:22.793Z,101388.09
2019-03-24T16:33:56.214Z,101383.63
2019-03-24T16:36:29.665Z,101377.78
2019-03-24T16:39:06.865Z,101372.69
2019-03-24T16:41:40.151Z,101374.06
2019-03-24T16:44:13.644Z,101375.78
2019-03-24T16:46:47.101Z,101373.18
2019-03-24T16:49:21.361Z,101374.86
2019-03-24T16:51:54.853Z,101372.30
2019-03-24T16:54:28.264Z,101370.70
2019-03-24T16:57:01.662Z,101365.77
2019-03-24T16:59:35.114Z,101370.06
2019-03-24T17:02:08.683Z,101368.47
2019-03-24T17:04:42.036Z,101355.16
2019-03-24T17:07:15.890Z,101360.09
2019-03-24T17:09:49.255Z,101356.34
2019-03-24T17:12:22.707Z,101358.59
2019-03-24T17:14:56.043Z,101359.55
2019-03-24T17:17:29.504Z,101357.84
2019-03-24T17:20:03.282Z,101351.11
2019-03-24T17:22:36.854Z,101361.14
2019-03-24T17:25:11.246Z,101358.74
2019-03-24T17:27:44.709Z,101352.82
2019-03-24T17:30:18.195Z,101355.50
2019-03-24T17:32:51.645Z,101349.61
2019-03-24T17:35:25.008Z,101343.73
2019-03-24T17:37:58.568Z,101346.55
2019-03-24T17:40:38.560Z,101344.50
2019-03-24T17:43:07.396Z,101338.61
2019-03-24T17:45:40.815Z,101340.02
2019-03-24T17:48:14.194Z,101335.01
2019-03-24T17:50:47.630Z,101334.70
2019-03-24T17:53:21.153Z,101331.08
2019-03-24T17:55:54.531Z,101328.72
2019-03-24T17:58:27.926Z,101321.59
2019-03-24T18:01:01.325Z,101322.98
2019-03-24T18:03:34.745Z,101325.63
2019-03-24T18:06:08.204Z,101330.00
2019-03-24T18:08:41.532Z,101327.95
2019-03-24T18:11:14.980Z,101322.49
2019-03-24T18:13:48.311Z,101328.09
2019-03-24T18:16:21.752Z,101318.77
2019-03-24T18:18:55.205Z,101317.12
2019-03-24T18:21:28.666Z,101314.20
2019-03-24T18:24:02.068Z,101302.78
2019-03-24T18:26:35.553Z,101303.66
2019-03-24T18:29:09.098Z,101303.70
2019-03-24T18:31:43.102Z,101301.19
2019-03-24T18:34:16.451Z,101305.47
2019-03-24T18:36:49.942Z,101294.47
2019-03-24T18:39:23.468Z,101304.28
2019-03-24T18:41:57.037Z,101295.42
2019-03-24T18:44:30.397Z,101294.17
2019-03-24T18:47:03.930Z,101299.73
2019-03-24T18:49:37.360Z,101298.48
2019-03-24T18:52:10.801Z,101303.16
2019-03-24T18:54:44.212Z,101298.08
2019-03-24T18:57:17.718Z,101295.55
2019-03-24T18:59:51.147Z,101294.70
2019-03-24T19:02:24.516Z,101289.60
2019-03-24T19:04:57.853Z,101298.95
2019-03-24T19:07:31.229Z,101291.30
2019-03-24T19:10:07.683Z,101289.61
2019-03-24T19:12:41.335Z,101293.41
2019-03-24T19:15:15.605Z,101289.59
2019-03-24T19:17:49.076Z,101292.55
2019-03-24T19:20:22.701Z,101284.91
2019-03-24T19:22:56.066Z,101286.20
2019-03-24T19:25:29.700Z,101287.03
2019-03-24T19:28:03.241Z,101281.94
2019-03-24T19:30:38.328Z,101281.52
2019-03-24T19:33:11.858Z,101277.70
2019-03-24T19:35:45.343Z,101273.47
2019-03-24T19:38:20.357Z,101272.20
2019-03-24T19:40:53.726Z,101277.27
2019-03-24T19:43:27.194Z,101273.87
2019-03-24T19:46:00.618Z,101272.61
2019-03-24T19:48:34.068Z,101274.30
2019-03-24T19:51:07.490Z,101273.02
2019-03-24T19:53:40.886Z,101270.47
2019-03-24T19:56:14.208Z,101263.69
2019-03-24T19:58:47.626Z,101265.38
2019-03-24T20:01:21.048Z,101256.47
2019-03-24T20:03:54.490Z,101258.19
2019-03-24T20:06:27.905Z,101257.33
2019-03-24T20:09:01.340Z,101264.11
2019-03-24T20:11:34.843Z,101254.76
2019-03-24T20:14:08.360Z,101253.05
2019-03-24T20:16:41.750Z,101247.09
2019-03-24T20:19:15.293Z,101236.89
2019-03-24T20:21:48.656Z,101237.31
2019-03-24T20:24:22.167Z,101228.81
2019-03-24T20:26:55.674Z,101227.52
2019-03-24T20:29:29.157Z,101220.30
2019-03-24T20:32:02.564Z,101211.79
2019-03-24T20:34:36.033Z,101205.41
2019-03-24T20:37:09.360Z,101205.41
2019-03-24T20:39:42.763Z,101194.37
2019-03-24T20:42:16.130Z,101199.03
2019-03-24T20:44:49.526Z,101187.98
2019-03-24T20:47:22.910Z,101194.77
2019-03-24T20:49:56.294Z,101188.80
2019-03-24T20:52:29.787Z,101180.32
2019-03-24T20:55:04.377Z,101173.51
2019-03-24T20:57:37.829Z,101169.67
2019-03-24T21:00:11.779Z,101165.88
2019-03-24T21:02:45.290Z,101163.77
2019-03-24T21:05:18.679Z,101169.30
2019-03-24T21:07:52.116Z,101164.21
2019-03-24T21:10:25.457Z,101162.05
2019-03-24T21:12:58.977Z,101161.61
2019-03-24T21:15:32.399Z,101151.41
2019-03-24T21:18:05.903Z,101140.78
2019-03-24T21:20:39.253Z,101136.11
2019-03-24T21:23:12.686Z,101134.41
2019-03-24T21:25:46.240Z,101130.12
2019-03-24T21:28:19.609Z,101131.00
2019-03-24T21:30:52.958Z,101122.08
2019-03-24T21:33:26.480Z,101128.47
2019-03-24T21:36:00.028Z,101122.94
2019-03-24T21:38:33.592Z,101117.00
2019-03-24T21:41:07.110Z,101110.66
2019-03-24T21:43:40.539Z,101109.38
2019-03-24T21:46:13.977Z,101103.42
2019-03-24T21:48:47.427Z,101104.27
2019-03-24T21:51:20.797Z,101099.58
2019-03-24T21:53:54.257Z,101092.80
2019-03-24T21:56:27.579Z,101097.04
2019-03-24T21:59:00.947Z,101091.51
2019-03-24T22:01:34.377Z,101092.80
2019-03-24T22:04:07.857Z,101080.48
2019-03-24T22:06:41.224Z,101082.20
2019-03-24T22:09:14.686Z,101072.41
2019-03-24T22:11:48.018Z,101073.28
2019-03-24T22:14:21.487Z,101062.65
2019-03-24T22:16:54.924Z,101057.98
2019-03-24T22:19:28.359Z,101059.70
2019-03-24T22:22:01.686Z,101059.72
2019-03-24T22:24:35.301Z,101051.23
2019-03-24T22:27:08.783Z,101043.64
2019-03-24T22:29:42.419Z,101044.94
2019-03-24T22:32:16.145Z,101038.97
2019-03-24T22:34:49.692Z,101034.75
2019-03-24T22:37:23.343Z,101030.95
2019-03-24T22:39:57.275Z,101035.23
2019-03-24T22:42:31.315Z,101020.80
2019-03-24T22:45:05.868Z,101026.79
2019-03-24T22:47:39.795Z,101025.53
2019-03-24T22:50:15.999Z,101019.22
2019-03-24T22:52:49.498Z,101011.23
2019-03-24T22:55:23.199Z,101005.31
2019-03-24T22:57:56.697Z,101001.90
2019-03-24T23:00:46.687Z,100996.43
2019-03-24T23:03:20.246Z,100990.93
2019-03-24T23:05:53.778Z,100986.71
2019-03-24T23:08:27.410Z,100979.50
2019-03-24T23:11:00.820Z,100982.09
2019-03-24T23:13:34.249Z,100966.87
2019-03-24T23:16:07.768Z,100964.78
2019-03-24T23:18:41.220Z,100958.02
2019-03-24T23:21:14.559Z,100949.53
2019-03-24T23:23:47.958Z,100944.46
2019-03-24T23:26:21.398Z,100934.67
2019-03-24T23:28:54.864Z,100938.48
2019-03-24T23:31:28.397Z,100929.59
2019-03-24T23:34:01.858Z,100930.05
2019-03-24T23:36:35.240Z,100913.98
2019-03-24T23:39:09.149Z,100913.98
2019-03-24T23:41:42.513Z,100905.08
2019-03-24T23:44:16.027Z,100905.09
2019-03-24T23:46:49.440Z,100895.80
2019-03-24T23:49:22.882Z,100891.14
2019-03-24T23:51:56.350Z,100893.69
2019-03-24T23:54:29.725Z,100885.21
2019-03-24T23:57:03.179Z,100881.40
2019-03-24T23:59:36.924Z,100871.24
